createdAt,value
2019-04-20T00:00:06.233Z,0.00
2019-04-20T00:01:03.376Z,0.00
2019-04-20T00:02:08.235Z,0.00
2019-04-20T00:03:03.391Z,0.00
2019-04-20T00:04:01.437Z,0.00
2019-04-20T00:05:01.426Z,0.00
2019-04-20T00:06:01.588Z,0.00
2019-04-20T00:07:01.938Z,0.00
2019-04-20T00:08:09.133Z,0.00
2019-04-20T00:09:07.394Z,0.00
2019-04-20T00:10:08.712Z,0.00
2019-04-20T00:11:08.070Z,0.00
2019-04-20T00:12:10.841Z,0.00
2019-04-20T00:13:16.607Z,0.00
2019-04-20T00:14:08.965Z,0.00
2019-04-20T00:15:02.964Z,0.00
2019-04-20T00:16:02.024Z,0.00
2019-04-20T00:17:01.300Z,0.00
2019-04-20T00:18:04.605Z,0.00
2019-04-20T00:19:05.228Z,0.00
2019-04-20T00:20:09.254Z,0.00
2019-04-20T00:21:08.271Z,0.00
2019-04-20T00:22:07.042Z,0.00
2019-04-20T00:23:02.231Z,0.00
2019-04-20T00:24:10.315Z,0.00
2019-04-20T00:25:06.610Z,0.00
2019-04-20T00:26:12.303Z,0.00
2019-04-20T00:27:28.435Z,0.00
2019-04-20T00:28:19.930Z,0.00
2019-04-20T00:29:23.938Z,0.00
2019-04-20T00:30:24.839Z,0.00
2019-04-20T00:31:19.014Z,0.00
2019-04-20T00:32:12.573Z,0.00
2019-04-20T00:33:14.765Z,0.00
2019-04-20T00:34:11.171Z,0.00
2019-04-20T00:35:02.244Z,0.00
2019-04-20T00:36:01.197Z,0.00
2019-04-20T00:37:02.329Z,0.00
2019-04-20T00:38:01.279Z,0.00
2019-04-20T00:39:04.535Z,0.00
2019-04-20T00:40:02.046Z,0.00
2019-04-20T00:41:05.607Z,0.00
2019-04-20T00:42:06.570Z,0.00
2019-04-20T00:43:03.021Z,0.00
2019-04-20T00:44:08.337Z,0.00
2019-04-20T00:45:08.463Z,0.00
2019-04-20T00:46:09.172Z,0.00
2019-04-20T00:47:12.903Z,0.00
2019-04-20T00:48:06.801Z,0.00
2019-04-20T00:49:17.259Z,0.00
2019-04-20T00:50:21.340Z,0.00
2019-04-20T00:51:23.885Z,0.00
2019-04-20T00:52:31.155Z,0.00
2019-04-20T00:53:12.411Z,0.00
2019-04-20T00:54:02.658Z,0.00
2019-04-20T00:55:02.382Z,0.00
2019-04-20T00:56:01.292Z,0.00
2019-04-20T00:57:14.404Z,0.00
2019-04-20T00:58:14.751Z,0.00
2019-04-20T00:59:12.977Z,0.00
2019-04-20T01:00:24.389Z,0.00
2019-04-20T01:01:20.316Z,0.00
2019-04-20T01:02:19.197Z,0.00
2019-04-20T01:03:19.767Z,0.00
2019-04-20T01:04:21.204Z,0.00
2019-04-20T01:05:18.003Z,0.00
2019-04-20T01:06:22.187Z,0.00
2019-04-20T01:07:15.199Z,0.00
2019-04-20T01:08:04.905Z,0.00
2019-04-20T01:09:01.345Z,0.00
2019-04-20T01:10:00.725Z,0.00
2019-04-20T01:11:01.516Z,0.00
2019-04-20T01:12:05.121Z,0.00
2019-04-20T01:13:08.716Z,0.00
2019-04-20T01:14:07.103Z,0.00
2019-04-20T01:15:05.581Z,0.00
2019-04-20T01:16:08.708Z,0.00
2019-04-20T01:17:11.404Z,0.00
2019-04-20T01:18:01.637Z,0.00
2019-04-20T01:19:00.628Z,0.00
2019-04-20T01:20:00.615Z,0.00
2019-04-20T01:21:07.693Z,0.00
2019-04-20T01:22:07.085Z,0.00
2019-04-20T01:23:07.470Z,0.00
2019-04-20T01:24:04.638Z,0.00
2019-04-20T01:25:11.992Z,0.00
2019-04-20T01:26:06.141Z,0.00
2019-04-20T01:27:04.112Z,0.00
2019-04-20T01:28:13.011Z,0.00
2019-04-20T01:29:15.839Z,0.00
2019-04-20T01:30:10.501Z,0.00
2019-04-20T01:31:17.728Z,0.00
2019-04-20T01:32:10.456Z,0.00
2019-04-20T01:33:16.297Z,0.00
2019-04-20T01:34:08.357Z,0.00
2019-04-20T01:35:19.688Z,0.00
2019-04-20T01:36:19.536Z,0.00
2019-04-20T01:37:19.543Z,0.00
2019-04-20T01:38:25.056Z,0.00
2019-04-20T01:39:13.639Z,0.00
2019-04-20T01:40:04.436Z,0.00
2019-04-20T01:41:01.251Z,0.00
2019-04-20T01:42:00.419Z,0.00
2019-04-20T01:43:01.565Z,0.00
2019-04-20T01:44:00.533Z,0.00
2019-04-20T01:45:00.387Z,0.00
2019-04-20T01:46:08.125Z,0.00
2019-04-20T01:47:04.889Z,0.00
2019-04-20T01:48:03.021Z,0.00
2019-04-20T01:49:09.189Z,0.00
2019-04-20T01:50:08.495Z,0.00
2019-04-20T01:51:07.153Z,0.00
2019-04-20T01:52:10.779Z,0.00
2019-04-20T01:53:12.513Z,0.00
2019-04-20T01:54:15.852Z,0.00
2019-04-20T01:55:17.405Z,0.00
2019-04-20T01:56:18.140Z,0.00
2019-04-20T01:57:11.602Z,0.00
2019-04-20T01:58:17.684Z,0.00
2019-04-20T01:59:16.386Z,0.00
2019-04-20T02:00:09.479Z,0.00
2019-04-20T02:01:09.797Z,0.00
2019-04-20T02:02:05.183Z,0.00
2019-04-20T02:03:04.814Z,0.00
2019-04-20T02:04:01.755Z,0.00
2019-04-20T02:05:11.339Z,0.00
2019-04-20T02:06:06.153Z,0.00
2019-04-20T02:07:03.346Z,0.00
2019-04-20T02:08:00.358Z,0.00
2019-04-20T02:09:06.462Z,0.00
2019-04-20T02:10:05.035Z,0.00
2019-04-20T02:11:05.377Z,0.00
2019-04-20T02:12:08.433Z,0.00
2019-04-20T02:13:04.355Z,0.00
2019-04-20T02:14:04.920Z,0.00
2019-04-20T02:15:04.372Z,0.00
2019-04-20T02:16:11.438Z,0.00
2019-04-20T02:17:09.592Z,0.00
2019-04-20T02:18:16.225Z,0.00
2019-04-20T02:19:13.799Z,0.00
2019-04-20T02:20:25.280Z,0.00
2019-04-20T02:21:22.327Z,0.00
2019-04-20T02:22:13.204Z,0.00
2019-04-20T02:23:14.540Z,0.00
2019-04-20T02:24:04.637Z,0.00
2019-04-20T02:25:01.729Z,0.00
2019-04-20T02:26:00.853Z,0.00
2019-04-20T02:26:59.950Z,0.00
2019-04-20T02:28:18.942Z,0.00
2019-04-20T02:29:24.646Z,0.00
2019-04-20T02:30:32.494Z,0.00
2019-04-20T02:32:45.695Z,0.00
2019-04-20T02:33:45.016Z,0.00
2019-04-20T02:34:39.785Z,0.00
2019-04-20T02:35:36.711Z,0.00
2019-04-20T02:36:45.756Z,0.00
2019-04-20T02:37:36.266Z,0.00
2019-04-20T02:38:56.428Z,0.00
2019-04-20T02:39:37.555Z,0.00
2019-04-20T02:40:45.172Z,0.00
2019-04-20T02:42:34.071Z,0.00
2019-04-20T02:43:51.712Z,0.00
2019-04-20T02:46:36.587Z,0.00
2019-04-20T02:47:43.216Z,0.00
2019-04-20T02:48:35.677Z,0.00
2019-04-20T02:49:35.456Z,0.00
2019-04-20T02:51:39.291Z,0.00
2019-04-20T02:52:38.228Z,0.00
2019-04-20T02:54:26.174Z,0.00
2019-04-20T02:55:48.315Z,0.00
2019-04-20T02:58:34.732Z,0.00
2019-04-20T03:00:25.089Z,0.00
2019-04-20T03:01:20.496Z,0.00
2019-04-20T03:02:19.497Z,0.00
2019-04-20T03:03:16.369Z,0.00
2019-04-20T03:04:04.881Z,0.00
2019-04-20T03:05:13.688Z,0.00
2019-04-20T03:06:13.369Z,0.00
2019-04-20T03:07:14.903Z,0.00
2019-04-20T03:08:20.594Z,0.00
2019-04-20T03:10:17.674Z,0.00
2019-04-20T03:11:20.873Z,0.00
2019-04-20T03:12:23.817Z,0.00
2019-04-20T03:13:19.765Z,0.00
2019-04-20T03:14:19.057Z,0.00
2019-04-20T03:15:23.967Z,0.00
2019-04-20T03:16:21.919Z,0.00
2019-04-20T03:17:21.429Z,0.00
2019-04-20T03:18:21.289Z,0.00
2019-04-20T03:19:18.742Z,0.00
2019-04-20T03:20:25.616Z,0.00
2019-04-20T03:21:24.758Z,0.00
2019-04-20T03:22:51.236Z,0.00
2019-04-20T03:24:29.162Z,0.00
2019-04-20T03:25:23.812Z,0.00
2019-04-20T03:26:22.524Z,0.00
2019-04-20T03:27:22.279Z,0.00
2019-04-20T03:28:18.298Z,0.00
2019-04-20T03:29:13.009Z,0.00
2019-04-20T03:30:58.777Z,0.00
2019-04-20T03:31:53.730Z,0.00
2019-04-20T03:33:44.770Z,0.00
2019-04-20T03:34:48.668Z,0.00
2019-04-20T03:35:24.582Z,0.00
2019-04-20T03:36:31.821Z,0.00
2019-04-20T03:37:26.729Z,0.00
2019-04-20T03:38:19.856Z,0.00
2019-04-20T03:39:19.075Z,0.00
2019-04-20T03:40:16.901Z,0.00
2019-04-20T03:41:11.739Z,0.00
2019-04-20T03:42:01.041Z,0.00
2019-04-20T03:42:59.174Z,0.00
2019-04-20T03:44:04.487Z,0.00
2019-04-20T03:45:05.773Z,0.00
2019-04-20T03:46:07.414Z,0.00
2019-04-20T03:47:05.415Z,0.00
2019-04-20T03:48:09.018Z,0.00
2019-04-20T03:49:21.322Z,0.00
2019-04-20T03:50:25.647Z,0.00
2019-04-20T03:51:23.928Z,0.00
2019-04-20T03:52:19.282Z,5.62
2019-04-20T03:53:23.688Z,5.62
2019-04-20T03:54:16.560Z,5.62
2019-04-20T03:55:16.209Z,5.62
2019-04-20T03:56:26.428Z,5.62
2019-04-20T03:57:19.701Z,5.62
2019-04-20T03:58:19.722Z,5.62
2019-04-20T03:59:11.576Z,5.62
2019-04-20T04:00:16.241Z,11.25
2019-04-20T04:01:27.290Z,11.25
2019-04-20T04:02:29.709Z,11.25
2019-04-20T04:03:32.831Z,11.25
2019-04-20T04:04:25.407Z,11.25
2019-04-20T04:05:19.377Z,16.88
2019-04-20T04:06:12.846Z,16.88
2019-04-20T04:07:02.758Z,16.88
2019-04-20T04:08:10.572Z,16.88
2019-04-20T04:09:12.183Z,22.50
2019-04-20T04:10:16.914Z,22.50
2019-04-20T04:11:18.930Z,22.50
2019-04-20T04:12:12.177Z,22.50
2019-04-20T04:13:01.059Z,28.12
2019-04-20T04:13:58.849Z,28.12
2019-04-20T04:14:59.848Z,28.12
2019-04-20T04:16:03.278Z,33.75
2019-04-20T04:17:02.597Z,33.75
2019-04-20T04:18:07.400Z,33.75
2019-04-20T04:19:09.980Z,39.38
2019-04-20T04:20:05.094Z,39.38
2019-04-20T04:21:06.329Z,39.38
2019-04-20T04:22:12.261Z,45.00
2019-04-20T04:23:16.245Z,45.00
2019-04-20T04:24:12.890Z,50.62
2019-04-20T04:25:14.876Z,50.62
2019-04-20T04:26:16.666Z,50.62
2019-04-20T04:27:14.955Z,56.25
2019-04-20T04:28:15.406Z,56.25
2019-04-20T04:29:19.153Z,56.25
2019-04-20T04:30:16.499Z,61.88
2019-04-20T04:31:16.507Z,61.88
2019-04-20T04:32:35.496Z,61.88
2019-04-20T04:33:40.232Z,67.50
2019-04-20T04:34:17.724Z,67.50
2019-04-20T04:35:14.991Z,73.12
2019-04-20T04:36:13.769Z,73.12
2019-04-20T04:37:21.656Z,73.12
2019-04-20T04:38:24.066Z,78.75
2019-04-20T04:39:22.553Z,78.75
2019-04-20T04:40:29.599Z,78.75
2019-04-20T04:41:25.615Z,84.38
2019-04-20T04:42:23.759Z,84.38
2019-04-20T04:43:19.789Z,90.00
2019-04-20T04:44:15.210Z,90.00
2019-04-20T04:45:04.907Z,90.00
2019-04-20T04:45:59.627Z,95.62
2019-04-20T04:47:02.748Z,95.62
2019-04-20T04:47:59.818Z,95.62
2019-04-20T04:49:08.775Z,101.25
2019-04-20T04:50:09.164Z,101.25
2019-04-20T04:51:06.253Z,106.88
2019-04-20T04:52:06.267Z,106.88
2019-04-20T04:53:07.587Z,106.88
2019-04-20T04:54:10.208Z,112.50
2019-04-20T04:55:10.873Z,112.50
2019-04-20T04:56:05.731Z,118.12
2019-04-20T04:56:59.303Z,118.12
2019-04-20T04:57:58.329Z,118.12
2019-04-20T04:58:58.303Z,123.75
2019-04-20T04:59:59.441Z,123.75
2019-04-20T05:01:05.605Z,129.38
2019-04-20T05:02:00.497Z,129.38
2019-04-20T05:03:03.856Z,129.38
2019-04-20T05:04:23.251Z,135.00
2019-04-20T05:05:17.611Z,135.00
2019-04-20T05:06:19.685Z,140.62
2019-04-20T05:07:12.814Z,140.62
2019-04-20T05:08:10.231Z,146.25
2019-04-20T05:09:02.348Z,146.25
2019-04-20T05:09:59.230Z,151.88
2019-04-20T05:10:58.351Z,157.50
2019-04-20T05:12:05.435Z,157.50
2019-04-20T05:12:59.132Z,163.12
2019-04-20T05:14:03.268Z,163.12
2019-04-20T05:15:07.597Z,163.12
2019-04-20T05:16:13.203Z,163.12
2019-04-20T05:17:15.103Z,168.75
2019-04-20T05:18:20.654Z,168.75
2019-04-20T05:19:19.635Z,174.38
2019-04-20T05:20:19.017Z,174.38
2019-04-20T05:21:20.802Z,180.00
2019-04-20T05:22:20.606Z,180.00
2019-04-20T05:23:12.942Z,185.62
2019-04-20T05:24:13.186Z,185.62
2019-04-20T05:25:18.439Z,191.25
2019-04-20T05:26:20.012Z,191.25
2019-04-20T05:27:20.788Z,196.88
2019-04-20T05:28:14.456Z,196.88
2019-04-20T05:29:08.493Z,202.50
2019-04-20T05:29:59.224Z,202.50
2019-04-20T05:31:02.811Z,208.12
2019-04-20T05:32:07.342Z,208.12
2019-04-20T05:33:05.777Z,213.75
2019-04-20T05:34:20.300Z,213.75
2019-04-20T05:35:23.673Z,219.38
2019-04-20T05:36:18.602Z,219.38
2019-04-20T05:37:29.731Z,225.00
2019-04-20T05:38:28.353Z,230.62
2019-04-20T05:40:23.745Z,241.88
2019-04-20T05:41:17.381Z,247.50
2019-04-20T05:42:26.258Z,253.12
2019-04-20T05:43:15.384Z,258.75
2019-04-20T05:44:12.788Z,264.38
2019-04-20T05:45:16.697Z,281.25
2019-04-20T05:46:22.009Z,281.25
2019-04-20T05:47:16.939Z,264.38
2019-04-20T05:48:14.280Z,264.38
2019-04-20T05:49:23.415Z,275.62
2019-04-20T05:50:17.897Z,303.75
2019-04-20T05:51:26.885Z,337.50
2019-04-20T05:52:31.628Z,354.38
2019-04-20T05:53:19.269Z,354.38
2019-04-20T05:54:23.456Z,365.62
2019-04-20T05:55:21.115Z,376.88
2019-04-20T05:56:20.338Z,388.12
2019-04-20T05:57:25.196Z,399.38
2019-04-20T05:58:23.351Z,405.00
2019-04-20T05:59:17.858Z,416.25
2019-04-20T06:00:21.509Z,416.25
2019-04-20T06:01:20.245Z,421.88
2019-04-20T06:02:23.372Z,421.88
2019-04-20T06:03:18.478Z,421.88
2019-04-20T06:04:30.038Z,427.50
2019-04-20T06:05:25.546Z,433.12
2019-04-20T06:06:14.111Z,438.75
2019-04-20T06:07:23.962Z,450.00
2019-04-20T06:08:26.391Z,455.62
2019-04-20T06:09:22.956Z,466.88
2019-04-20T06:10:20.475Z,478.12
2019-04-20T06:11:20.974Z,483.75
2019-04-20T06:12:20.107Z,489.38
2019-04-20T06:13:15.009Z,489.38
2019-04-20T06:14:08.045Z,495.00
2019-04-20T06:15:11.658Z,500.62
2019-04-20T06:16:14.439Z,511.88
2019-04-20T06:17:20.949Z,523.12
2019-04-20T06:18:13.551Z,534.38
2019-04-20T06:19:26.460Z,556.88
2019-04-20T06:20:19.741Z,590.62
2019-04-20T06:21:26.503Z,675.00
2019-04-20T06:22:29.633Z,1029.38
2019-04-20T06:23:24.589Z,1451.25
2019-04-20T06:24:26.735Z,1631.25
2019-04-20T06:26:36.987Z,1676.25
2019-04-20T06:27:14.904Z,1597.50
2019-04-20T06:28:17.537Z,1513.12
2019-04-20T06:30:13.744Z,1558.12
2019-04-20T06:31:26.491Z,1704.38
2019-04-20T06:32:29.527Z,1811.25
2019-04-20T06:33:21.954Z,1845.00
2019-04-20T06:35:33.586Z,1828.12
2019-04-20T06:36:27.502Z,1749.38
2019-04-20T06:37:19.367Z,1867.50
2019-04-20T06:38:39.695Z,1856.25
2019-04-20T06:39:19.978Z,1957.50
2019-04-20T06:40:36.398Z,2030.62
2019-04-20T06:41:31.774Z,1963.12
2019-04-20T06:42:34.817Z,2053.12
2019-04-20T06:43:19.267Z,2053.12
2019-04-20T06:44:23.790Z,2109.38
2019-04-20T06:45:27.734Z,2148.75
2019-04-20T06:46:24.083Z,2109.38
2019-04-20T06:47:19.908Z,2165.62
2019-04-20T06:48:31.047Z,2238.75
2019-04-20T06:49:22.686Z,2154.38
2019-04-20T06:50:18.495Z,2210.62
2019-04-20T06:51:23.350Z,2351.25
2019-04-20T06:52:24.315Z,2334.38
2019-04-20T06:53:28.582Z,2300.62
2019-04-20T06:54:10.458Z,2452.50
2019-04-20T06:55:13.892Z,2576.25
2019-04-20T06:56:23.499Z,2565.00
2019-04-20T06:57:19.615Z,2503.12
2019-04-20T06:58:36.387Z,2587.50
2019-04-20T06:59:27.718Z,2430.00
2019-04-20T07:00:34.700Z,1811.25
2019-04-20T07:01:17.170Z,1344.38
2019-04-20T07:02:22.173Z,1080.00
2019-04-20T07:03:30.941Z,1153.12
2019-04-20T07:05:20.117Z,1080.00
2019-04-20T07:06:41.847Z,1051.88
2019-04-20T07:07:19.595Z,1029.38
2019-04-20T07:08:34.601Z,1012.50
2019-04-20T07:09:21.761Z,973.12
2019-04-20T07:11:25.344Z,860.62
2019-04-20T07:12:17.102Z,984.38
2019-04-20T07:13:11.610Z,978.75
2019-04-20T07:14:02.914Z,978.75
2019-04-20T07:15:16.310Z,984.38
2019-04-20T07:16:21.373Z,984.38
2019-04-20T07:17:31.621Z,984.38
2019-04-20T07:18:24.559Z,978.75
2019-04-20T07:19:21.372Z,978.75
2019-04-20T07:20:15.482Z,978.75
2019-04-20T07:21:23.450Z,978.75
2019-04-20T07:22:33.485Z,973.12
2019-04-20T07:23:26.599Z,973.12
2019-04-20T07:24:25.186Z,973.12
2019-04-20T07:25:23.162Z,978.75
2019-04-20T07:26:22.258Z,984.38
2019-04-20T07:27:17.854Z,990.00
2019-04-20T07:28:20.302Z,995.62
2019-04-20T07:29:20.994Z,1006.88
2019-04-20T07:30:19.468Z,1029.38
2019-04-20T07:31:20.509Z,1046.25
2019-04-20T07:32:10.262Z,1074.38
2019-04-20T07:33:21.676Z,1119.38
2019-04-20T07:34:23.012Z,1203.75
2019-04-20T07:35:23.253Z,1378.12
2019-04-20T07:36:26.594Z,2013.75
2019-04-20T07:37:51.783Z,2542.50
2019-04-20T07:39:26.599Z,3172.50
2019-04-20T07:40:28.983Z,3088.12
2019-04-20T07:41:28.438Z,2947.50
2019-04-20T07:42:27.240Z,2930.62
2019-04-20T07:43:17.413Z,2908.12
2019-04-20T07:44:29.885Z,3121.88
2019-04-20T07:45:33.006Z,3183.75
2019-04-20T07:46:34.593Z,3296.25
2019-04-20T07:47:22.046Z,3375.00
2019-04-20T07:48:30.740Z,3375.00
2019-04-20T07:49:22.435Z,3313.12
2019-04-20T07:50:13.552Z,3403.12
2019-04-20T07:51:06.805Z,3217.50
2019-04-20T07:51:57.671Z,3211.88
2019-04-20T07:53:13.489Z,3268.12
2019-04-20T07:54:24.499Z,3425.62
2019-04-20T07:55:42.243Z,3526.88
2019-04-20T07:56:20.792Z,3560.62
2019-04-20T07:57:14.612Z,3633.75
2019-04-20T07:58:08.340Z,3436.88
2019-04-20T07:59:11.631Z,3256.88
2019-04-20T08:00:19.898Z,2930.62
2019-04-20T08:01:22.513Z,3251.25
2019-04-20T08:02:23.569Z,3521.25
2019-04-20T08:03:22.278Z,3031.88
2019-04-20T08:04:17.399Z,3161.25
2019-04-20T08:05:11.928Z,3453.75
2019-04-20T08:06:06.830Z,3763.12
2019-04-20T08:07:02.123Z,3870.00
2019-04-20T08:08:17.154Z,3898.12
2019-04-20T08:09:12.832Z,3864.38
2019-04-20T08:10:04.013Z,3757.50
2019-04-20T08:11:13.867Z,3915.00
2019-04-20T08:12:19.350Z,3875.62
2019-04-20T08:13:30.561Z,3858.75
2019-04-20T08:14:24.230Z,4010.62
2019-04-20T08:15:32.252Z,3948.75
2019-04-20T08:16:24.345Z,3723.75
2019-04-20T08:17:41.915Z,4016.25
2019-04-20T08:18:21.502Z,4224.38
2019-04-20T08:19:17.627Z,4095.00
2019-04-20T08:20:15.828Z,4156.88
2019-04-20T08:21:12.942Z,3971.25
2019-04-20T08:22:21.879Z,3802.50
2019-04-20T08:23:18.564Z,3993.75
2019-04-20T08:24:17.099Z,4162.50
2019-04-20T08:25:12.534Z,4168.12
2019-04-20T08:26:07.805Z,3892.50
2019-04-20T08:27:01.067Z,3549.38
2019-04-20T08:27:57.167Z,3768.75
2019-04-20T08:29:01.807Z,4162.50
2019-04-20T08:30:09.191Z,3830.62
2019-04-20T08:31:10.365Z,3825.00
2019-04-20T08:32:17.911Z,3819.38
2019-04-20T08:33:14.513Z,3993.75
2019-04-20T08:34:38.323Z,4190.62
2019-04-20T08:35:23.144Z,4083.75
2019-04-20T08:36:18.642Z,4005.00
2019-04-20T08:37:17.330Z,3695.62
2019-04-20T08:40:19.796Z,4308.75
2019-04-20T08:41:12.876Z,4010.62
2019-04-20T08:42:16.469Z,4005.00
2019-04-20T08:43:34.200Z,4145.62
2019-04-20T08:44:42.619Z,4218.75
2019-04-20T08:45:16.323Z,4365.00
2019-04-20T08:46:15.069Z,4286.25
2019-04-20T08:47:27.434Z,4134.38
2019-04-20T08:48:23.176Z,4021.88
2019-04-20T08:49:27.721Z,4353.75
2019-04-20T08:50:19.908Z,4128.75
2019-04-20T08:51:19.494Z,4235.62
2019-04-20T08:52:38.409Z,3003.75
2019-04-20T08:53:24.792Z,3915.00
2019-04-20T08:54:18.005Z,3763.12
2019-04-20T08:55:14.956Z,3819.38
2019-04-20T08:56:11.932Z,3836.25
2019-04-20T08:57:01.233Z,3886.88
2019-04-20T08:57:56.808Z,3397.50
2019-04-20T08:58:57.071Z,3200.62
2019-04-20T08:59:56.068Z,3363.75
2019-04-20T09:01:01.326Z,3015.00
2019-04-20T09:01:58.924Z,2925.00
2019-04-20T09:03:05.736Z,2970.00
2019-04-20T09:04:08.997Z,3431.25
2019-04-20T09:05:03.155Z,3555.00
2019-04-20T09:06:06.722Z,3414.38
2019-04-20T09:07:07.723Z,3521.25
2019-04-20T09:08:06.742Z,3931.88
2019-04-20T09:09:22.424Z,4016.25
2019-04-20T09:10:24.926Z,3960.00
2019-04-20T09:11:15.362Z,4162.50
2019-04-20T09:12:14.548Z,4162.50
2019-04-20T09:13:08.406Z,4095.00
2019-04-20T09:14:00.173Z,4106.25
2019-04-20T09:14:57.355Z,3954.38
2019-04-20T09:15:55.681Z,4196.25
2019-04-20T09:17:00.061Z,4308.75
2019-04-20T09:18:00.995Z,4061.25
2019-04-20T09:19:03.611Z,4021.88
2019-04-20T09:20:06.275Z,4005.00
2019-04-20T09:21:05.024Z,4359.38
2019-04-20T09:22:06.407Z,4398.75
2019-04-20T09:23:13.218Z,4269.38
2019-04-20T09:24:21.739Z,4269.38
2019-04-20T09:25:27.798Z,4286.25
2019-04-20T09:26:15.023Z,4387.50
2019-04-20T09:27:12.924Z,3954.38
2019-04-20T09:28:07.250Z,4286.25
2019-04-20T09:29:06.883Z,4320.00
2019-04-20T09:30:21.589Z,4201.88
2019-04-20T09:31:13.242Z,4297.50
2019-04-20T09:32:20.911Z,4275.00
2019-04-20T09:33:14.674Z,3909.38
2019-04-20T09:34:14.422Z,3853.12
2019-04-20T09:35:13.545Z,3915.00
2019-04-20T09:36:10.316Z,3718.12
2019-04-20T09:37:16.479Z,3414.38
2019-04-20T09:38:11.807Z,3684.38
2019-04-20T09:39:10.418Z,4252.50
2019-04-20T09:40:15.488Z,4066.88
2019-04-20T09:41:22.006Z,4173.75
2019-04-20T09:42:01.447Z,4106.25
2019-04-20T09:42:56.348Z,4353.75
2019-04-20T09:43:56.152Z,4275.00
2019-04-20T09:44:58.975Z,4044.38
2019-04-20T09:46:01.659Z,4140.00
2019-04-20T09:46:59.694Z,4505.62
2019-04-20T09:47:57.136Z,4500.00
2019-04-20T09:48:59.889Z,4736.25
2019-04-20T09:50:08.982Z,4483.12
2019-04-20T09:51:19.239Z,4410.00
2019-04-20T09:52:12.230Z,4365.00
2019-04-20T09:53:11.534Z,4657.50
2019-04-20T09:54:12.507Z,4854.38
2019-04-20T09:55:12.118Z,4010.62
2019-04-20T09:56:14.377Z,4438.12
2019-04-20T09:57:13.785Z,4758.75
2019-04-20T09:58:09.792Z,4584.38
2019-04-20T09:59:19.221Z,4567.50
2019-04-20T10:00:13.400Z,4843.12
2019-04-20T10:01:09.963Z,4758.75
2019-04-20T10:02:06.628Z,4848.75
2019-04-20T10:02:56.168Z,5203.12
2019-04-20T10:03:55.150Z,5203.12
2019-04-20T10:04:55.576Z,4831.88
2019-04-20T10:05:55.915Z,4640.62
2019-04-20T10:06:55.308Z,4533.75
2019-04-20T10:07:59.893Z,4381.88
2019-04-20T10:08:59.809Z,4500.00
2019-04-20T10:09:56.098Z,4466.25
2019-04-20T10:10:56.077Z,4584.38
2019-04-20T10:11:55.406Z,4663.12
2019-04-20T10:12:56.291Z,4657.50
2019-04-20T10:13:56.423Z,4623.75
2019-04-20T10:14:57.625Z,4421.25
2019-04-20T10:15:56.037Z,4100.62
2019-04-20T10:16:55.858Z,4314.38
2019-04-20T10:17:56.066Z,4713.75
2019-04-20T10:18:55.310Z,4635.00
2019-04-20T10:19:55.681Z,4848.75
2019-04-20T10:20:55.784Z,5118.75
2019-04-20T10:21:54.987Z,5135.62
2019-04-20T10:22:56.281Z,5146.88
2019-04-20T10:23:54.964Z,5085.00
2019-04-20T10:24:55.931Z,4635.00
2019-04-20T10:25:56.422Z,4539.38
2019-04-20T10:26:54.944Z,4803.75
2019-04-20T10:27:55.774Z,5034.38
2019-04-20T10:28:55.259Z,5073.75
2019-04-20T10:29:55.557Z,4950.00
2019-04-20T10:30:54.900Z,4747.50
2019-04-20T10:31:58.351Z,5051.25
2019-04-20T10:32:55.899Z,5326.88
2019-04-20T10:33:55.642Z,5180.62
2019-04-20T10:34:54.945Z,5175.00
2019-04-20T10:35:54.861Z,4888.12
2019-04-20T10:36:55.510Z,4578.75
2019-04-20T10:37:55.652Z,4860.00
2019-04-20T10:38:54.887Z,4989.38
2019-04-20T10:39:54.820Z,4983.75
2019-04-20T10:41:05.338Z,4989.38
2019-04-20T10:41:59.535Z,5073.75
2019-04-20T10:42:59.436Z,5124.38
2019-04-20T10:43:56.706Z,4741.88
2019-04-20T10:44:56.863Z,4426.88
2019-04-20T10:45:55.026Z,4314.38
2019-04-20T10:46:54.766Z,4421.25
2019-04-20T10:47:55.044Z,4595.62
2019-04-20T10:48:57.244Z,4618.12
2019-04-20T10:49:56.589Z,4646.25
2019-04-20T10:50:54.848Z,4477.50
2019-04-20T10:51:55.779Z,4438.12
2019-04-20T10:52:55.996Z,4741.88
2019-04-20T10:53:56.084Z,4910.62
2019-04-20T10:54:54.680Z,4921.88
2019-04-20T10:55:55.698Z,4635.00
2019-04-20T10:56:55.462Z,4539.38
2019-04-20T10:57:55.608Z,4831.88
2019-04-20T10:58:55.855Z,4882.50
2019-04-20T10:59:55.373Z,4651.88
2019-04-20T11:00:55.723Z,4449.38
2019-04-20T11:01:55.838Z,4404.38
2019-04-20T11:02:55.461Z,4747.50
2019-04-20T11:03:54.599Z,5073.75
2019-04-20T11:04:54.846Z,5079.38
2019-04-20T11:05:54.580Z,4876.88
2019-04-20T11:06:54.596Z,5011.88
2019-04-20T11:07:54.757Z,4876.88
2019-04-20T11:08:54.553Z,4736.25
2019-04-20T11:10:05.284Z,5259.38
2019-04-20T11:11:08.324Z,5495.62
2019-04-20T11:11:56.572Z,5231.25
2019-04-20T11:12:54.517Z,4320.00
2019-04-20T11:13:55.343Z,4640.62
2019-04-20T11:14:54.579Z,4128.75
2019-04-20T11:15:54.656Z,3909.38
2019-04-20T11:16:54.484Z,3881.25
2019-04-20T11:17:55.397Z,3729.38
2019-04-20T11:18:55.584Z,3948.75
2019-04-20T11:19:54.995Z,4213.12
2019-04-20T11:20:55.333Z,4308.75
2019-04-20T11:21:54.520Z,4303.12
2019-04-20T11:22:54.426Z,3999.38
2019-04-20T11:23:54.415Z,3971.25
2019-04-20T11:24:54.407Z,4201.88
2019-04-20T11:25:54.399Z,4140.00
2019-04-20T11:26:54.388Z,4095.00
2019-04-20T11:27:54.497Z,4342.50
2019-04-20T11:28:55.608Z,4511.25
2019-04-20T11:29:54.360Z,4314.38
2019-04-20T11:30:54.354Z,4145.62
2019-04-20T11:31:56.073Z,4387.50
2019-04-20T11:32:54.333Z,4505.62
2019-04-20T11:33:54.322Z,4601.25
2019-04-20T11:34:56.463Z,4978.12
2019-04-20T11:35:54.985Z,4578.75
2019-04-20T11:36:55.085Z,4342.50
2019-04-20T11:37:55.451Z,4657.50
2019-04-20T11:38:54.474Z,4567.50
2019-04-20T11:39:54.866Z,4365.00
2019-04-20T11:41:04.071Z,4038.75
2019-04-20T11:41:55.925Z,4410.00
2019-04-20T11:42:55.379Z,4365.00
2019-04-20T11:43:55.636Z,4381.88
2019-04-20T11:44:54.912Z,4421.25
2019-04-20T11:45:54.560Z,4556.25
2019-04-20T11:46:54.515Z,4308.75
2019-04-20T11:47:55.622Z,4173.75
2019-04-20T11:48:55.318Z,4798.12
2019-04-20T11:49:55.392Z,4646.25
2019-04-20T11:50:54.163Z,4426.88
2019-04-20T11:51:55.337Z,4612.50
2019-04-20T11:52:55.264Z,5062.50
2019-04-20T11:53:54.404Z,5197.50
2019-04-20T11:54:54.653Z,4950.00
2019-04-20T11:55:54.283Z,4978.12
2019-04-20T11:56:55.368Z,4764.38
2019-04-20T11:57:54.223Z,4213.12
2019-04-20T11:58:54.091Z,3909.38
2019-04-20T11:59:54.990Z,4106.25
2019-04-20T12:01:03.207Z,4556.25
2019-04-20T12:02:00.514Z,5017.50
2019-04-20T12:02:58.556Z,4989.38
2019-04-20T12:04:01.710Z,4303.12
2019-04-20T12:05:10.053Z,4010.62
2019-04-20T12:05:57.898Z,4106.25
2019-04-20T12:06:55.014Z,4758.75
2019-04-20T12:07:55.294Z,4618.12
2019-04-20T12:08:54.932Z,3836.25
2019-04-20T12:09:59.373Z,3796.88
2019-04-20T12:10:59.893Z,4320.00
2019-04-20T12:12:06.906Z,4584.38
2019-04-20T12:12:55.702Z,4770.00
2019-04-20T12:13:54.531Z,4893.75
2019-04-20T12:14:54.787Z,4618.12
2019-04-20T12:15:53.987Z,4730.62
2019-04-20T12:16:53.922Z,4663.12
2019-04-20T12:17:53.933Z,4522.50
2019-04-20T12:18:54.660Z,4230.00
2019-04-20T12:19:53.894Z,4213.12
2019-04-20T12:20:54.851Z,4038.75
2019-04-20T12:21:53.949Z,3853.12
2019-04-20T12:22:54.615Z,4348.12
2019-04-20T12:23:54.128Z,4494.38
2019-04-20T12:24:54.114Z,4308.75
2019-04-20T12:25:54.358Z,4623.75
2019-04-20T12:26:54.625Z,4708.12
2019-04-20T12:27:56.791Z,4410.00
2019-04-20T12:28:55.805Z,4410.00
2019-04-20T12:29:54.072Z,4668.75
2019-04-20T12:30:58.352Z,4522.50
2019-04-20T12:32:00.019Z,4179.38
2019-04-20T12:32:58.557Z,3408.75
2019-04-20T12:33:54.853Z,1884.38
2019-04-20T12:34:54.084Z,1293.75
2019-04-20T12:35:54.195Z,1231.88
2019-04-20T12:36:53.732Z,1192.50
2019-04-20T12:37:54.674Z,1175.62
2019-04-20T12:38:54.934Z,1153.12
2019-04-20T12:39:53.702Z,1147.50
2019-04-20T12:40:53.695Z,1136.25
2019-04-20T12:41:58.297Z,1136.25
2019-04-20T12:42:55.020Z,1136.25
2019-04-20T12:43:53.880Z,1147.50
2019-04-20T12:44:53.654Z,1158.75
2019-04-20T12:45:53.858Z,1170.00
2019-04-20T12:46:53.965Z,1209.38
2019-04-20T12:47:53.624Z,1265.62
2019-04-20T12:48:53.626Z,1861.88
2019-04-20T12:49:53.816Z,3138.75
2019-04-20T12:50:53.594Z,2930.62
2019-04-20T12:51:58.038Z,1755.00
2019-04-20T12:52:54.793Z,1310.62